Time;durP1;ratioP1;P1;durP2;ratioP2;P2;SDS_P1;SDS_P2;PMS_P1;PMS_P2;Temp;Humidity;BMP_temperature;BMP_pressure;BME280_temperature;BME280_humidity;BME280_pressure;Samples;Min_cycle;Max_cycle;Signal;HPM_P1;HPM_P2
2022/06/03 00:02:03;;;;;;;4.05;3.72;;;;;;;;;;5006183;28;20461;-68
2022/06/03 00:04:47;;;;;;;4.35;3.95;;;;;;;;;;5008687;28;20437;-68
2022/06/03 00:07:12;;;;;;;5.22;4.38;;;;;;;;;;5016916;28;20151;-68
2022/06/03 00:09:56;;;;;;;6.43;4.43;;;;;;;;;;5004205;28;20076;-68
2022/06/03 00:12:40;;;;;;;5.88;3.88;;;;;;;;;;5002712;28;20080;-71
2022/06/03 00:15:09;;;;;;;5.10;3.92;;;;;;;;;;5002853;28;20030;-68
2022/06/03 00:17:34;;;;;;;6.50;4.38;;;;;;;;;;5003611;28;20021;-68
2022/06/03 00:20:12;;;;;;;5.15;4.65;;;;;;;;;;4998080;28;20479;-68
2022/06/03 00:22:44;;;;;;;4.65;3.97;;;;;;;;;;4987499;28;20476;-68
2022/06/03 00:25:09;;;;;;;4.57;3.75;;;;;;;;;;5005566;28;20497;-68
2022/06/03 00:27:34;;;;;;;4.77;4.37;;;;;;;;;;5005391;28;20030;-68
2022/06/03 00:30:18;;;;;;;4.40;4.00;;;;;;;;;;5013097;28;20277;-68
2022/06/03 00:32:49;;;;;;;7.40;4.50;;;;;;;;;;4991024;28;20263;-68
2022/06/03 00:35:24;;;;;;;5.22;4.35;;;;;;;;;;5000566;28;20243;-67
2022/06/03 00:37:54;;;;;;;5.00;4.60;;;;;;;;;;5008719;28;20018;-68
2022/06/03 00:40:31;;;;;;;5.07;4.15;;;;;;;;;;5002740;28;20032;-68
2022/06/03 00:43:08;;;;;;;4.10;3.80;;;;;;;;;;5004153;28;20023;-68
2022/06/03 00:45:52;;;;;;;4.47;3.97;;;;;;;;;;5004730;28;20400;-68
2022/06/03 00:48:25;;;;;;;4.32;3.92;;;;;;;;;;5011386;28;20139;-68
2022/06/03 00:50:59;;;;;;;5.93;4.18;;;;;;;;;;5005328;28;20030;-68
2022/06/03 00:53:24;;;;;;;;;;;;;;;;;;5014820;28;20080;-68
2022/06/03 00:56:09;;;;;;;6.45;4.45;;;;;;;;;;4999968;28;20000;-68
2022/06/03 00:58:38;;;;;;;3.95;3.65;;;;;;;;;;5017388;28;20021;-68
2022/06/03 01:01:03;;;;;;;6.78;4.40;;;;;;;;;;5005429;28;20014;-68
2022/06/03 01:03:31;;;;;;;4.15;3.60;;;;;;;;;;4993635;28;20026;-68
2022/06/03 01:05:56;;;;;;;6.68;3.80;;;;;;;;;;4990515;28;20485;-68
2022/06/03 01:08:22;;;;;;;5.35;4.45;;;;;;;;;;5010517;28;20492;-68
2022/06/03 01:11:06;;;;;;;4.83;4.43;;;;;;;;;;5006807;28;20460;-68
2022/06/03 01:13:40;;;;;;;4.68;4.00;;;;;;;;;;5014854;28;20406;-68
2022/06/03 01:16:05;;;;;;;;;;;;;;;;;;5008395;28;20025;-68
2022/06/03 01:18:30;;;;;;;5.20;4.28;;;;;;;;;;4999957;28;19918;-69
2022/06/03 01:20:55;;;;;;;6.78;4.38;;;;;;;;;;5005099;28;20376;-68
2022/06/03 01:23:39;;;;;;;5.10;4.60;;;;;;;;;;5006315;28;20388;-68
2022/06/03 01:26:11;;;;;;;5.75;4.70;;;;;;;;;;5005313;28;20044;-68
2022/06/03 01:28:39;;;;;;;5.47;4.97;;;;;;;;;;5003622;28;20037;-68
2022/06/03 01:31:04;;;;;;;5.97;4.90;;;;;;;;;;5002646;28;20030;-69
2022/06/03 01:33:42;;;;;;;5.28;4.78;;;;;;;;;;4988228;28;20032;-68
2022/06/03 01:36:20;;;;;;;6.00;5.20;;;;;;;;;;5005897;28;20101;-68
2022/06/03 01:38:45;;;;;;;5.47;4.97;;;;;;;;;;5002940;28;20021;-68
2022/06/03 01:41:29;;;;;;;7.80;5.10;;;;;;;;;;5005128;28;20044;-68
2022/06/03 01:44:12;;;;;;;6.47;5.63;;;;;;;;;;5004813;28;20047;-68
2022/06/03 01:46:50;;;;;;;7.55;5.40;;;;;;;;;;5003289;28;20099;-68
2022/06/03 01:49:28;;;;;;;8.48;5.57;;;;;;;;;;5006137;28;20431;-68
2022/06/03 01:52:08;;;;;;;7.68;5.70;;;;;;;;;;5005438;28;20030;-68
2022/06/03 01:54:36;;;;;;;6.32;5.72;;;;;;;;;;5000501;28;20088;-68
2022/06/03 01:57:07;;;;;;;7.80;5.95;;;;;;;;;;5000193;28;20257;-68
2022/06/03 01:59:51;;;;;;;7.38;5.10;;;;;;;;;;5000847;28;20583;-68
2022/06/03 02:02:36;;;;;;;6.32;5.72;;;;;;;;;;4996505;28;20041;-68
2022/06/03 02:05:10;;;;;;;7.13;5.78;;;;;;;;;;5002334;28;20034;-68
2022/06/03 02:07:41;;;;;;;6.25;5.47;;;;;;;;;;5001629;28;20563;-68
2022/06/03 02:10:25;;;;;;;10.82;6.07;;;;;;;;;;5001026;28;20029;-68
2022/06/03 02:13:09;;;;;;;7.93;6.07;;;;;;;;;;5001867;28;20451;-68
2022/06/03 02:15:43;;;;;;;8.85;5.60;;;;;;;;;;5002291;28;20049;-68
2022/06/03 02:18:18;;;;;;;8.13;5.93;;;;;;;;;;5001398;28;20026;-68
2022/06/03 02:21:05;;;;;;;7.90;6.00;;;;;;;;;;4997056;28;20030;-68
2022/06/03 02:23:33;;;;;;;8.60;5.68;;;;;;;;;;5000689;28;20164;-68
2022/06/03 02:26:16;;;;;;;6.00;5.50;;;;;;;;;;5001091;28;20299;-68
2022/06/03 02:28:44;;;;;;;7.15;5.60;;;;;;;;;;4999445;28;20026;-68
2022/06/03 02:31:09;;;;;;;6.95;5.75;;;;;;;;;;5001018;28;20049;-68
2022/06/03 02:33:53;;;;;;;6.68;5.75;;;;;;;;;;5000507;28;20452;-68
2022/06/03 02:36:21;;;;;;;9.13;5.30;;;;;;;;;;4999140;28;20022;-68
2022/06/03 02:38:47;;;;;;;7.68;6.25;;;;;;;;;;5000891;28;20036;-68
2022/06/03 02:41:21;;;;;;;7.00;6.38;;;;;;;;;;5001534;28;20026;-68
2022/06/03 02:43:46;;;;;;;6.68;5.70;;;;;;;;;;5000507;28;20112;-68
2022/06/03 02:46:20;;;;;;;7.22;5.93;;;;;;;;;;5000124;28;20533;-68
2022/06/03 02:48:56;;;;;;;7.03;6.30;;;;;;;;;;5000130;28;20092;-68
2022/06/03 02:51:35;;;;;;;6.68;5.97;;;;;;;;;;5001440;28;20172;-68
2022/06/03 02:54:15;;;;;;;6.50;5.30;;;;;;;;;;5004897;28;20125;-68
2022/06/03 02:56:56;;;;;;;7.22;6.10;;;;;;;;;;5005092;28;20338;-68
2022/06/03 02:59:53;;;;;;;6.80;6.10;;;;;;;;;;4999554;28;20037;-68
2022/06/03 03:02:30;;;;;;;7.35;5.80;;;;;;;;;;4972897;28;20502;-68
2022/06/03 03:05:14;;;;;;;7.07;5.72;;;;;;;;;;4990403;28;20058;-68
2022/06/03 03:07:54;;;;;;;9.32;5.82;;;;;;;;;;5000442;28;20171;-68
2022/06/03 03:10:46;;;;;;;6.38;5.72;;;;;;;;;;5002095;28;20029;-68
2022/06/03 03:13:26;;;;;;;7.50;6.03;;;;;;;;;;5003189;28;20624;-68
2022/06/03 03:15:54;;;;;;;7.00;5.40;;;;;;;;;;4998845;28;20026;-68
2022/06/03 03:18:38;;;;;;;9.07;6.28;;;;;;;;;;5003478;28;20152;-68
2022/06/03 03:21:09;;;;;;;8.60;6.50;;;;;;;;;;5000446;28;20077;-68
2022/06/03 03:23:40;;;;;;;6.78;5.60;;;;;;;;;;5005651;28;20100;-68
2022/06/03 03:26:06;;;;;;;7.35;6.03;;;;;;;;;;5002649;28;20505;-68
2022/06/03 03:28:44;;;;;;;9.57;6.73;;;;;;;;;;5003153;28;20101;-68
2022/06/03 03:31:16;;;;;;;10.13;6.53;;;;;;;;;;5005628;28;20270;-68
2022/06/03 03:33:41;;;;;;;6.55;5.95;;;;;;;;;;5003266;28;20465;-68
2022/06/03 03:36:09;;;;;;;8.90;6.80;;;;;;;;;;4988930;28;20024;-69
2022/06/03 03:38:40;;;;;;;6.85;6.10;;;;;;;;;;5002883;28;20025;-68
2022/06/03 03:41:08;;;;;;;7.68;6.15;;;;;;;;;;5005355;28;20064;-68
2022/06/03 03:43:52;;;;;;;8.18;6.22;;;;;;;;;;5004987;28;20610;-69
2022/06/03 03:46:35;;;;;;;7.53;6.75;;;;;;;;;;5001633;28;20030;-68
2022/06/03 03:49:04;;;;;;;10.55;7.15;;;;;;;;;;5000849;28;20022;-68
2022/06/03 03:51:44;;;;;;;7.07;6.20;;;;;;;;;;5005781;28;20045;-68
2022/06/03 03:54:09;;;;;;;9.13;7.28;;;;;;;;;;4984388;28;20048;-68
2022/06/03 03:56:34;;;;;;;8.07;7.00;;;;;;;;;;5003251;28;20381;-68
2022/06/03 03:59:15;;;;;;;8.53;7.03;;;;;;;;;;5002544;28;20283;-68
2022/06/03 04:01:46;;;;;;;10.13;7.22;;;;;;;;;;5002449;28;20369;-68
2022/06/03 04:04:30;;;;;;;7.68;6.80;;;;;;;;;;5005279;28;20033;-68
2022/06/03 04:07:04;;;;;;;8.10;7.25;;;;;;;;;;5002259;28;20064;-68
2022/06/03 04:09:47;;;;;;;10.60;7.07;;;;;;;;;;5001558;28;20049;-68
2022/06/03 04:12:12;;;;;;;9.32;7.28;;;;;;;;;;5003422;28;20033;-68
2022/06/03 04:14:56;;;;;;;8.43;7.03;;;;;;;;;;5004218;28;20468;-68
2022/06/03 04:17:41;;;;;;;9.07;8.18;;;;;;;;;;5003767;28;20334;-68
2022/06/03 04:20:21;;;;;;;9.93;7.25;;;;;;;;;;5002474;28;20040;-68
2022/06/03 04:23:05;;;;;;;8.98;7.15;;;;;;;;;;5004454;28;20105;-68
2022/06/03 04:25:48;;;;;;;7.85;7.05;;;;;;;;;;5005223;28;20551;-67
2022/06/03 04:28:32;;;;;;;9.93;7.30;;;;;;;;;;4999324;28;20033;-68
2022/06/03 04:31:22;;;;;;;7.72;6.90;;;;;;;;;;5003123;28;20498;-68
2022/06/03 04:33:47;;;;;;;11.02;7.78;;;;;;;;;;5003656;28;20026;-68
2022/06/03 04:36:45;;;;;;;9.52;7.65;;;;;;;;;;4983342;28;20026;-68
2022/06/03 04:39:34;;;;;;;10.43;7.57;;;;;;;;;;4954279;28;20048;-68
2022/06/03 04:42:06;;;;;;;8.85;7.65;;;;;;;;;;5003618;28;20030;-68
2022/06/03 04:44:40;;;;;;;10.18;8.30;;;;;;;;;;5000456;28;20057;-68
2022/06/03 04:47:05;;;;;;;;;;;;;;;;;;5002068;28;20117;-68
2022/06/03 04:49:33;;;;;;;11.02;7.95;;;;;;;;;;4983287;28;19920;-69
2022/06/03 04:52:21;;;;;;;11.10;8.27;;;;;;;;;;5004320;28;20502;-68
2022/06/03 04:54:55;;;;;;;11.52;9.18;;;;;;;;;;4999513;28;20036;-68
2022/06/03 04:57:48;;;;;;;9.55;7.80;;;;;;;;;;5004383;28;20443;-68
2022/06/03 05:00:21;;;;;;;12.15;8.15;;;;;;;;;;4999034;28;20378;-68
2022/06/03 05:02:58;;;;;;;12.10;9.27;;;;;;;;;;5005387;28;20072;-68
2022/06/03 05:05:49;;;;;;;9.82;7.70;;;;;;;;;;5006872;28;20021;-68
2022/06/03 05:08:30;;;;;;;10.57;8.52;;;;;;;;;;5019498;28;20364;-69
2022/06/03 05:11:10;;;;;;;11.95;8.98;;;;;;;;;;5005588;28;20405;-68
2022/06/03 05:13:54;;;;;;;11.82;9.07;;;;;;;;;;5005750;28;20018;-68
2022/06/03 05:16:38;;;;;;;9.77;8.07;;;;;;;;;;4985489;28;20555;-68
2022/06/03 05:19:22;;;;;;;10.88;8.88;;;;;;;;;;5006068;28;20026;-68
2022/06/03 05:22:13;;;;;;;9.40;8.15;;;;;;;;;;5003041;28;20025;-69
2022/06/03 05:24:57;;;;;;;9.65;8.32;;;;;;;;;;5005651;28;20061;-69
2022/06/03 05:27:45;;;;;;;10.65;8.38;;;;;;;;;;5001642;28;20026;-70
2022/06/03 05:30:11;;;;;;;11.73;8.32;;;;;;;;;;4955485;28;20029;-70
2022/06/03 05:32:39;;;;;;;9.27;8.38;;;;;;;;;;5001947;28;20464;-70
2022/06/03 05:35:25;;;;;;;8.82;7.82;;;;;;;;;;5004470;28;20062;-69
2022/06/03 05:38:02;;;;;;;10.00;7.88;;;;;;;;;;5004796;28;20129;-70
2022/06/03 05:40:46;;;;;;;9.48;8.32;;;;;;;;;;4982917;28;20025;-69
2022/06/03 05:43:14;;;;;;;8.50;7.50;;;;;;;;;;4999788;28;20060;-69
2022/06/03 05:45:58;;;;;;;10.13;7.25;;;;;;;;;;5009008;28;20111;-69
2022/06/03 05:48:27;;;;;;;9.02;7.07;;;;;;;;;;5001574;28;20499;-70
2022/06/03 05:51:04;;;;;;;8.55;7.38;;;;;;;;;;4997970;28;20079;-71
2022/06/03 05:53:39;;;;;;;13.45;7.93;;;;;;;;;;5001553;28;20124;-71
2022/06/03 05:56:17;;;;;;;11.32;7.85;;;;;;;;;;5009098;28;20034;-74
2022/06/03 05:58:57;;;;;;;9.70;7.60;;;;;;;;;;5000198;28;20084;-71
2022/06/03 06:01:33;;;;;;;9.93;7.22;;;;;;;;;;5003539;28;20050;-70
2022/06/03 06:04:17;;;;;;;8.50;6.93;;;;;;;;;;5004786;28;20018;-70
2022/06/03 06:07:05;;;;;;;12.15;7.45;;;;;;;;;;5002935;28;20459;-70
2022/06/03 06:09:39;;;;;;;8.15;7.35;;;;;;;;;;5000517;28;20034;-70
2022/06/03 06:12:20;;;;;;;8.90;7.60;;;;;;;;;;4998780;28;20017;-70
2022/06/03 06:14:54;;;;;;;8.18;7.35;;;;;;;;;;5002179;28;20064;-70
2022/06/03 06:17:25;;;;;;;7.82;6.78;;;;;;;;;;5003284;28;20029;-69
2022/06/03 06:19:56;;;;;;;9.13;8.18;;;;;;;;;;5003474;28;20026;-69
2022/06/03 06:22:28;;;;;;;11.52;7.53;;;;;;;;;;5012219;28;20365;-69
2022/06/03 06:25:01;;;;;;;7.68;6.88;;;;;;;;;;5006051;28;20026;-69
2022/06/03 06:27:45;;;;;;;7.78;6.97;;;;;;;;;;5004985;28;20464;-70
2022/06/03 06:30:17;;;;;;;9.30;6.75;;;;;;;;;;5004408;28;20128;-69
2022/06/03 06:32:56;;;;;;;9.00;7.00;;;;;;;;;;5007462;28;20030;-68
2022/06/03 06:35:40;;;;;;;9.02;7.55;;;;;;;;;;5003225;28;20022;-70
2022/06/03 06:38:11;;;;;;;11.48;7.75;;;;;;;;;;5012310;28;20624;-68
2022/06/03 06:40:39;;;;;;;9.18;7.32;;;;;;;;;;5006509;28;20025;-68
2022/06/03 06:43:31;;;;;;;10.02;6.97;;;;;;;;;;5008805;28;20024;-69
2022/06/03 06:45:58;;;;;;;8.98;6.97;;;;;;;;;;5012577;28;20042;-69
2022/06/03 06:48:23;;;;;;;9.45;6.82;;;;;;;;;;5012023;28;20487;-69
2022/06/03 06:51:11;;;;;;;9.93;7.38;;;;;;;;;;5012391;28;20380;-69
2022/06/03 06:53:41;;;;;;;9.18;7.20;;;;;;;;;;5023365;28;20034;-69
2022/06/03 06:56:27;;;;;;;12.63;7.07;;;;;;;;;;5015503;28;20491;-69
2022/06/03 06:59:06;;;;;;;9.02;6.50;;;;;;;;;;4991177;28;20084;-69
2022/06/03 07:01:39;;;;;;;7.35;6.60;;;;;;;;;;5007217;28;20506;-69
2022/06/03 07:04:08;;;;;;;7.43;6.63;;;;;;;;;;5010276;28;20488;-69
2022/06/03 07:06:38;;;;;;;9.02;6.47;;;;;;;;;;5014948;28;20031;-71
2022/06/03 07:09:09;;;;;;;7.40;6.70;;;;;;;;;;5013663;28;20364;-69
2022/06/03 07:11:55;;;;;;;9.25;6.68;;;;;;;;;;5013969;28;20021;-68
2022/06/03 07:14:28;;;;;;;8.15;7.00;;;;;;;;;;5011473;28;20026;-68
2022/06/03 07:20:05;;;;;;;9.65;7.00;;;;;;;;;;5004554;28;20052;-72
2022/06/03 07:22:36;;;;;;;8.73;6.68;;;;;;;;;;5012579;28;20532;-71
2022/06/03 07:25:07;;;;;;;7.90;6.38;;;;;;;;;;5012193;28;20036;-71
2022/06/03 07:27:32;;;;;;;6.85;5.88;;;;;;;;;;5018597;28;20449;-72
2022/06/03 07:30:17;;;;;;;12.40;6.50;;;;;;;;;;5010017;28;20711;-74
2022/06/03 07:32:47;;;;;;;10.52;6.53;;;;;;;;;;5007772;28;20096;-72
2022/06/03 07:35:19;;;;;;;7.15;6.45;;;;;;;;;;5007212;28;20061;-72
2022/06/03 07:37:44;;;;;;;11.73;6.82;;;;;;;;;;5018374;28;20025;-73
2022/06/03 07:40:17;;;;;;;8.00;6.90;;;;;;;;;;5019402;28;20490;-72
2022/06/03 07:42:52;;;;;;;7.82;6.68;;;;;;;;;;5022526;28;20094;-72
2022/06/03 07:45:36;;;;;;;8.00;6.43;;;;;;;;;;5008122;28;20030;-73
2022/06/03 07:48:04;;;;;;;10.75;6.35;;;;;;;;;;5018222;28;20029;-72
2022/06/03 07:50:30;;;;;;;5.97;5.38;;;;;;;;;;5012617;28;20065;-72
2022/06/03 07:53:01;;;;;;;6.43;5.85;;;;;;;;;;5020849;28;20075;-75
2022/06/03 07:55:28;;;;;;;5.90;5.10;;;;;;;;;;5010974;28;20033;-72
2022/06/03 07:57:56;;;;;;;8.80;5.93;;;;;;;;;;5018862;28;20075;-71
2022/06/03 08:00:22;;;;;;;10.10;5.75;;;;;;;;;;5006516;28;20026;-73
2022/06/03 08:02:59;;;;;;;7.03;5.32;;;;;;;;;;5012430;28;20026;-72
2022/06/03 08:05:24;;;;;;;5.88;5.28;;;;;;;;;;5003053;28;20017;-72
2022/06/03 08:10:58;;;;;;;6.95;5.60;;;;;;;;;;5004273;28;20587;-72
2022/06/03 08:13:38;;;;;;;10.30;5.55;;;;;;;;;;5002661;28;20022;-71
2022/06/03 08:16:05;;;;;;;5.97;5.10;;;;;;;;;;5009445;28;20118;-71
2022/06/03 08:18:34;;;;;;;7.18;5.53;;;;;;;;;;5004791;28;20028;-73
2022/06/03 08:21:04;;;;;;;8.10;4.90;;;;;;;;;;5011273;28;20036;-71
2022/06/03 08:23:33;;;;;;;5.55;4.95;;;;;;;;;;5007899;28;20048;-71
2022/06/03 08:25:59;;;;;;;5.70;5.10;;;;;;;;;;5009217;28;20026;-72
2022/06/03 08:28:27;;;;;;;7.32;5.72;;;;;;;;;;5011660;28;20026;-71
2022/06/03 08:30:54;;;;;;;5.93;4.70;;;;;;;;;;5003421;28;20057;-72
2022/06/03 08:33:27;;;;;;;5.40;4.85;;;;;;;;;;5009983;28;20116;-70
2022/06/03 08:35:53;;;;;;;5.05;4.55;;;;;;;;;;5011597;28;20145;-73
2022/06/03 08:38:21;;;;;;;5.30;4.80;;;;;;;;;;5018262;28;20434;-71
2022/06/03 08:40:50;;;;;;;5.55;4.95;;;;;;;;;;5011953;28;20033;-72
2022/06/03 08:43:37;;;;;;;5.90;4.68;;;;;;;;;;5013324;28;20472;-72
2022/06/03 08:46:02;;;;;;;4.78;4.28;;;;;;;;;;5015084;28;20504;-74
2022/06/03 08:48:30;;;;;;;8.10;4.95;;;;;;;;;;5015774;28;20084;-71
2022/06/03 08:51:00;;;;;;;5.60;4.65;;;;;;;;;;5003382;28;20152;-71
2022/06/03 08:53:42;;;;;;;5.60;4.18;;;;;;;;;;5021076;28;20112;-70
2022/06/03 08:56:07;;;;;;;6.38;4.20;;;;;;;;;;5000531;28;20068;-71
2022/06/03 08:58:40;;;;;;;5.57;4.10;;;;;;;;;;5007589;28;20458;-71
2022/06/03 09:01:05;;;;;;;6.93;4.10;;;;;;;;;;5001309;28;20022;-70
2022/06/03 09:03:32;;;;;;;6.13;4.20;;;;;;;;;;5002330;28;20084;-71
2022/06/03 09:05:57;;;;;;;4.55;4.20;;;;;;;;;;5007736;28;20405;-71
2022/06/03 09:08:41;;;;;;;7.50;4.43;;;;;;;;;;5004999;28;20022;-71
2022/06/03 09:11:15;;;;;;;5.13;4.70;;;;;;;;;;5003903;28;20404;-70
2022/06/03 09:13:48;;;;;;;4.35;3.95;;;;;;;;;;5022043;28;20095;-70
2022/06/03 09:16:15;;;;;;;4.25;3.92;;;;;;;;;;5015545;28;20080;-72
2022/06/03 09:19:01;;;;;;;4.18;3.83;;;;;;;;;;5006019;28;20034;-69
2022/06/03 09:21:28;;;;;;;5.03;4.10;;;;;;;;;;4982848;28;20034;-73
2022/06/03 09:23:57;;;;;;;4.53;3.92;;;;;;;;;;5004659;28;20515;-73
2022/06/03 09:26:27;;;;;;;5.40;4.90;;;;;;;;;;5000381;28;20108;-73
2022/06/03 09:28:53;;;;;;;4.47;4.07;;;;;;;;;;5000635;28;20029;-70
2022/06/03 09:31:19;;;;;;;5.70;3.70;;;;;;;;;;5006510;28;20111;-70
2022/06/03 09:33:45;;;;;;;12.32;4.00;;;;;;;;;;5024200;28;20022;-73
2022/06/03 09:36:14;;;;;;;5.25;3.90;;;;;;;;;;5003619;28;20061;-71
2022/06/03 09:38:43;;;;;;;3.47;3.17;;;;;;;;;;5002877;28;20443;-70
2022/06/03 09:41:08;;;;;;;4.70;3.13;;;;;;;;;;5004969;28;20436;-74
2022/06/03 09:43:36;;;;;;;4.20;3.15;;;;;;;;;;5003131;28;20018;-72
2022/06/03 09:46:02;;;;;;;4.53;3.58;;;;;;;;;;5005563;28;20057;-73
2022/06/03 09:48:30;;;;;;;5.13;3.42;;;;;;;;;;5010739;28;20514;-72
2022/06/03 09:50:57;;;;;;;4.20;3.80;;;;;;;;;;5013074;28;20033;-73
2022/06/03 09:53:25;;;;;;;4.03;3.15;;;;;;;;;;5008806;28;20642;-71
2022/06/03 09:55:51;;;;;;;4.72;4.38;;;;;;;;;;5010949;28;20033;-75
2022/06/03 09:58:18;;;;;;;8.20;3.60;;;;;;;;;;5012748;28;20025;-73
2022/06/03 10:00:46;;;;;;;3.72;3.42;;;;;;;;;;5007339;28;20048;-72
2022/06/03 10:03:11;;;;;;;4.00;3.28;;;;;;;;;;5016364;28;20124;-75
2022/06/03 10:05:36;;;;;;;3.42;3.08;;;;;;;;;;5011278;28;20772;-71
2022/06/03 10:08:03;;;;;;;2.75;2.33;;;;;;;;;;5005372;28;20026;-74
2022/06/03 10:13:13;;;;;;;2.88;2.60;;;;;;;;;;5005761;28;20028;-75
2022/06/03 10:15:43;;;;;;;3.08;2.70;;;;;;;;;;5000626;28;20034;-74
2022/06/03 10:18:11;;;;;;;4.90;2.72;;;;;;;;;;5001734;28;20109;-73
2022/06/03 10:20:37;;;;;;;2.65;2.40;;;;;;;;;;5000468;28;20021;-72
2022/06/03 10:23:03;;;;;;;3.08;2.72;;;;;;;;;;4999397;28;20348;-74
2022/06/03 10:25:28;;;;;;;5.25;3.50;;;;;;;;;;5005141;28;20061;-74
2022/06/03 10:27:54;;;;;;;7.00;3.22;;;;;;;;;;5004773;28;20188;-72
2022/06/03 10:30:26;;;;;;;3.15;2.45;;;;;;;;;;5003884;28;20018;-75
2022/06/03 10:32:51;;;;;;;3.78;2.13;;;;;;;;;;5003448;28;20910;-76
2022/06/03 10:35:17;;;;;;;2.50;1.80;;;;;;;;;;5004123;28;20080;-75
2022/06/03 10:37:58;;;;;;;2.30;2.10;;;;;;;;;;5002914;28;20084;-73
2022/06/03 10:40:26;;;;;;;6.10;1.98;;;;;;;;;;5006572;28;20026;-74
2022/06/03 10:42:54;;;;;;;4.35;2.88;;;;;;;;;;5002388;28;20702;-72
2022/06/03 10:45:24;;;;;;;2.30;2.08;;;;;;;;;;5003675;28;20132;-76
2022/06/03 10:47:50;;;;;;;2.45;2.35;;;;;;;;;;4997541;28;20393;-71
2022/06/03 10:50:27;;;;;;;4.47;2.72;;;;;;;;;;5002122;28;20033;-74
2022/06/03 11:01:31;;;;;;;3.45;2.25;;;;;;;;;;5005626;28;20105;-71
2022/06/03 11:03:57;;;;;;;5.10;2.42;;;;;;;;;;5011055;28;20029;-74
2022/06/03 11:06:26;;;;;;;3.60;2.22;;;;;;;;;;5005076;28;20025;-75
2022/06/03 11:08:53;;;;;;;3.10;2.90;;;;;;;;;;5001114;28;20096;-72
2022/06/03 11:11:33;;;;;;;2.70;2.00;;;;;;;;;;5005456;28;20033;-71
2022/06/03 11:14:14;;;;;;;2.58;2.20;;;;;;;;;;5005200;28;20029;-73
2022/06/03 11:16:40;;;;;;;1.75;1.65;;;;;;;;;;5003379;28;20906;-72
2022/06/03 11:19:18;;;;;;;3.05;2.03;;;;;;;;;;5005416;28;20034;-71
2022/06/03 11:21:43;;;;;;;2.55;2.03;;;;;;;;;;5002593;28;20515;-70
2022/06/03 11:24:08;;;;;;;3.23;1.80;;;;;;;;;;5006533;28;20026;-71
2022/06/03 11:26:36;;;;;;;2.43;1.70;;;;;;;;;;5006805;28;20032;-71
2022/06/03 11:29:03;;;;;;;1.60;1.50;;;;;;;;;;5004853;28;20339;-71
2022/06/03 11:31:33;;;;;;;4.60;2.10;;;;;;;;;;4999787;28;20022;-71
2022/06/03 11:34:01;;;;;;;2.10;1.70;;;;;;;;;;5008454;28;20045;-76
2022/06/03 11:36:29;;;;;;;2.13;1.60;;;;;;;;;;5009286;28;20013;-71
2022/06/03 11:39:17;;;;;;;1.80;1.70;;;;;;;;;;5008463;28;20029;-73
2022/06/03 11:41:46;;;;;;;2.38;1.58;;;;;;;;;;4951637;28;20037;-71
2022/06/03 11:44:11;;;;;;;1.65;1.55;;;;;;;;;;5006651;28;20400;-71
2022/06/03 11:46:37;;;;;;;2.58;1.40;;;;;;;;;;4997749;28;20021;-68
2022/06/03 11:49:04;;;;;;;2.35;1.63;;;;;;;;;;4999209;28;20049;-72
2022/06/03 11:51:29;;;;;;;1.52;1.42;;;;;;;;;;5002832;28;20057;-72
2022/06/03 11:53:55;;;;;;;3.33;1.50;;;;;;;;;;5000950;28;20022;-70
2022/06/03 11:56:23;;;;;;;1.60;1.48;;;;;;;;;;5006389;28;20271;-70
2022/06/03 11:58:48;;;;;;;1.15;1.15;;;;;;;;;;5003027;28;20357;-69
2022/06/03 12:01:22;;;;;;;1.48;1.38;;;;;;;;;;5005241;28;20025;-70
2022/06/03 12:03:51;;;;;;;1.92;1.35;;;;;;;;;;5007445;28;20117;-70
2022/06/03 12:06:33;;;;;;;2.25;1.55;;;;;;;;;;5003859;28;20026;-70
2022/06/03 12:09:12;;;;;;;1.42;1.27;;;;;;;;;;5001965;28;20037;-70
2022/06/03 12:14:30;;;;;;;1.50;1.40;;;;;;;;;;4998884;28;20033;-69
2022/06/03 12:17:19;;;;;;;1.92;1.30;;;;;;;;;;5007884;28;20025;-69
2022/06/03 12:19:44;;;;;;;2.33;1.40;;;;;;;;;;4991874;28;20144;-70
2022/06/03 12:22:15;;;;;;;2.50;1.80;;;;;;;;;;5002799;28;20551;-74
2022/06/03 12:24:42;;;;;;;1.50;1.40;;;;;;;;;;5004170;28;20033;-72
2022/06/03 12:27:12;;;;;;;2.70;1.45;;;;;;;;;;4997742;28;20022;-72
2022/06/03 12:29:44;;;;;;;1.60;1.50;;;;;;;;;;4999295;28;20025;-72
2022/06/03 12:32:28;;;;;;;3.97;1.48;;;;;;;;;;5003511;28;20495;-74
2022/06/03 12:35:13;;;;;;;2.03;1.50;;;;;;;;;;5009233;28;20445;-73
2022/06/03 12:37:38;;;;;;;1.58;1.42;;;;;;;;;;5002620;28;20093;-74
2022/06/03 12:40:19;;;;;;;2.47;1.57;;;;;;;;;;5005353;28;20017;-72
2022/06/03 12:42:45;;;;;;;2.15;1.85;;;;;;;;;;5006102;28;20066;-73
2022/06/03 12:45:13;;;;;;;2.42;2.08;;;;;;;;;;5006829;28;20239;-73
2022/06/03 12:47:43;;;;;;;3.90;1.73;;;;;;;;;;5003742;28;20109;-72
2022/06/03 12:50:23;;;;;;;2.88;1.70;;;;;;;;;;5008873;28;20041;-72
2022/06/03 12:52:49;;;;;;;2.85;2.05;;;;;;;;;;5004369;28;20068;-71
2022/06/03 12:55:14;;;;;;;3.22;1.63;;;;;;;;;;5001318;28;20402;-73
2022/06/03 12:58:02;;;;;;;2.05;1.95;;;;;;;;;;4997014;28;20026;-76
2022/06/03 13:00:32;;;;;;;3.72;2.15;;;;;;;;;;4998767;28;20125;-72
2022/06/03 13:02:59;;;;;;;3.83;2.10;;;;;;;;;;5001811;28;20059;-76
2022/06/03 13:05:27;;;;;;;1.90;1.80;;;;;;;;;;5001928;28;20034;-73
2022/06/03 13:07:57;;;;;;;5.30;1.70;;;;;;;;;;5000838;28;20118;-75
2022/06/03 13:10:24;;;;;;;1.95;1.85;;;;;;;;;;5001919;28;20029;-73
2022/06/03 13:12:51;;;;;;;2.60;1.88;;;;;;;;;;5010609;28;20030;-72
2022/06/03 13:15:16;;;;;;;3.45;1.88;;;;;;;;;;5006440;28;20108;-72
2022/06/03 13:18:02;;;;;;;2.25;1.98;;;;;;;;;;4999717;28;20056;-71
2022/06/03 13:20:39;;;;;;;2.00;1.80;;;;;;;;;;4998548;28;20377;-71
2022/06/03 13:23:20;;;;;;;1.98;1.88;;;;;;;;;;5005345;28;20104;-71
2022/06/03 13:25:47;;;;;;;2.55;1.92;;;;;;;;;;4999794;28;20052;-71
2022/06/03 13:28:33;;;;;;;2.08;1.90;;;;;;;;;;4996755;28;20080;-72
2022/06/03 13:31:07;;;;;;;1.88;1.77;;;;;;;;;;5003279;28;20026;-72
2022/06/03 13:33:52;;;;;;;2.80;1.85;;;;;;;;;;5001184;28;20571;-72
2022/06/03 13:36:28;;;;;;;6.53;2.50;;;;;;;;;;4996697;28;20045;-72
2022/06/03 13:38:53;;;;;;;2.40;2.20;;;;;;;;;;5003595;28;20029;-74
2022/06/03 13:44:17;;;;;;;7.18;2.20;;;;;;;;;;4998727;28;20068;-73
2022/06/03 13:46:46;;;;;;;3.05;2.30;;;;;;;;;;5000583;28;20032;-72
2022/06/03 13:49:22;;;;;;;1.88;1.77;;;;;;;;;;5010538;28;20018;-71
2022/06/03 13:51:49;;;;;;;4.90;1.92;;;;;;;;;;5007591;28;20375;-72
2022/06/03 13:54:31;;;;;;;2.72;1.80;;;;;;;;;;5006402;28;20028;-71
2022/06/03 13:56:57;;;;;;;7.43;2.25;;;;;;;;;;5003342;28;20033;-72
2022/06/03 13:59:23;;;;;;;2.30;2.10;;;;;;;;;;5006531;28;20022;-79
2022/06/03 14:01:52;;;;;;;2.35;1.80;;;;;;;;;;5005575;28;20006;-72
2022/06/03 14:04:20;;;;;;;3.63;1.80;;;;;;;;;;5005269;28;20123;-75
2022/06/03 14:07:05;;;;;;;9.13;2.72;;;;;;;;;;5001709;28;20049;-75
2022/06/03 14:09:30;;;;;;;3.22;2.00;;;;;;;;;;4998430;28;20036;-71
2022/06/03 14:12:07;;;;;;;2.38;2.03;;;;;;;;;;5011595;28;20014;-70
2022/06/03 14:14:49;;;;;;;3.78;2.10;;;;;;;;;;5007698;28;20084;-71
2022/06/03 14:17:20;;;;;;;2.22;1.92;;;;;;;;;;5005339;28;20034;-70
2022/06/03 14:19:51;;;;;;;2.10;2.00;;;;;;;;;;5003647;28;20088;-76
2022/06/03 14:22:16;;;;;;;2.55;1.85;;;;;;;;;;5014549;28;20017;-69
2022/06/03 14:24:48;;;;;;;2.20;1.70;;;;;;;;;;5008941;28;20445;-73
2022/06/03 14:27:15;;;;;;;2.17;1.88;;;;;;;;;;5001178;28;20029;-72
2022/06/03 14:29:45;;;;;;;2.78;1.90;;;;;;;;;;5001877;28;20113;-71
2022/06/03 14:32:14;;;;;;;2.20;2.10;;;;;;;;;;4999310;28;20093;-73
2022/06/03 14:34:42;;;;;;;2.40;2.20;;;;;;;;;;5006070;28;20060;-70
2022/06/03 14:37:11;;;;;;;2.13;1.90;;;;;;;;;;5003590;28;20025;-73
2022/06/03 14:39:37;;;;;;;2.25;2.05;;;;;;;;;;5010498;28;20026;-70
2022/06/03 14:42:07;;;;;;;2.20;2.00;;;;;;;;;;5014030;28;20022;-70
2022/06/03 14:44:33;;;;;;;3.35;1.80;;;;;;;;;;5015813;28;20041;-71
2022/06/03 14:47:01;;;;;;;3.03;1.55;;;;;;;;;;5002929;28;20025;-71
2022/06/03 14:49:41;;;;;;;3.85;2.15;;;;;;;;;;5005528;28;20025;-72
2022/06/03 14:52:32;;;;;;;3.75;2.13;;;;;;;;;;5005423;28;20042;-74
2022/06/03 14:55:01;;;;;;;1.88;1.77;;;;;;;;;;4999804;28;20357;-75
2022/06/03 14:57:32;;;;;;;7.90;1.83;;;;;;;;;;5008221;28;20065;-71
2022/06/03 15:00:04;;;;;;;3.28;2.20;;;;;;;;;;5008822;28;20209;-72
2022/06/03 15:02:35;;;;;;;2.33;1.98;;;;;;;;;;5011028;28;20022;-73
2022/06/03 15:05:04;;;;;;;5.38;2.10;;;;;;;;;;5019291;28;20036;-72
2022/06/03 15:07:32;;;;;;;5.00;1.90;;;;;;;;;;5012774;28;20623;-70
2022/06/03 15:10:00;;;;;;;2.42;2.00;;;;;;;;;;5010180;28;20036;-71
2022/06/03 15:12:27;;;;;;;1.95;1.77;;;;;;;;;;5008037;28;20036;-73
2022/06/03 15:14:53;;;;;;;2.00;1.90;;;;;;;;;;5012122;28;20475;-70
2022/06/03 15:17:23;;;;;;;2.55;2.35;;;;;;;;;;5009909;28;20032;-71
2022/06/03 15:19:51;;;;;;;3.88;2.53;;;;;;;;;;5006136;28;20026;-72
2022/06/03 15:22:19;;;;;;;8.43;2.28;;;;;;;;;;5007747;28;20025;-72
2022/06/03 15:24:56;;;;;;;2.08;1.98;;;;;;;;;;5010064;28;20029;-70
2022/06/03 15:27:24;;;;;;;2.95;2.30;;;;;;;;;;5010208;28;20579;-72
2022/06/03 15:29:50;;;;;;;2.28;2.17;;;;;;;;;;5008387;28;20392;-72
2022/06/03 15:32:16;;;;;;;3.03;2.20;;;;;;;;;;4987522;28;20463;-71
2022/06/03 15:34:41;;;;;;;3.70;1.93;;;;;;;;;;5009294;28;20038;-71
2022/06/03 15:37:07;;;;;;;4.17;2.47;;;;;;;;;;5009560;28;20029;-74
2022/06/03 15:39:33;;;;;;;4.80;1.90;;;;;;;;;;5008240;28;20542;-72
2022/06/03 15:41:59;;;;;;;2.90;2.10;;;;;;;;;;5004408;28;20018;-74